Terminal Aerodrome Forecast
Issued by NWS Buffalo, NY

Home | Current Version | Previous Version | Text Only | Print | Product List | Glossary On
Versions: 1 2 3 4 5 6 7 8 9 10 11 12 13 14 15 16 17 18 19 20 21 22 23 24 25 26 27 28
095
FTUS41 KBUF 081120
TAFROC
TAF
KROC 081120Z 0812/0912 13008KT P6SM BKN080
     FM082000 10010KT P6SM SCT050 BKN080
     FM090400 11008KT P6SM VCSH OVC035
     FM090900 12009KT 5SM -SN BKN025=

USA.gov is the U.S. government's official web portal to all federal, state and local government web resources and services.